createdAt,value
2023-04-17T00:00:17.742Z,9.8692
2023-04-17T00:01:20.335Z,9.6692
2023-04-17T00:02:23.028Z,9.8615
2023-04-17T00:03:25.557Z,10.0000
2023-04-17T00:04:28.156Z,9.7615
2023-04-17T00:05:30.696Z,9.9615
2023-04-17T00:06:33.210Z,10.0231
2023-04-17T00:07:35.824Z,9.7923
2023-04-17T00:08:38.655Z,9.6692
2023-04-17T00:09:40.995Z,9.8385
2023-04-17T00:10:44.442Z,9.4692
2023-04-17T00:11:46.157Z,9.8308
2023-04-17T00:12:48.707Z,9.6154
2023-04-17T00:13:51.322Z,9.7538
2023-04-17T00:14:54.078Z,9.7385
2023-04-17T00:15:56.595Z,9.5769
2023-04-17T00:16:59.044Z,9.4923
2023-04-17T00:18:01.777Z,9.4077
2023-04-17T00:19:04.204Z,9.2769
2023-04-17T00:20:07.122Z,9.4462
2023-04-17T00:21:09.375Z,9.3615
2023-04-17T00:22:11.980Z,9.4154
2023-04-17T00:23:14.542Z,9.0154
2023-04-17T00:24:17.148Z,9.1538
2023-04-17T00:25:19.712Z,9.3692
2023-04-17T00:26:22.304Z,9.2692
2023-04-17T00:27:24.859Z,9.0462
2023-04-17T00:28:27.474Z,9.2385
2023-04-17T00:29:30.029Z,9.2000
2023-04-17T00:30:32.642Z,9.3385
2023-04-17T00:31:35.226Z,9.4231
2023-04-17T00:32:37.890Z,9.0692
2023-04-17T00:33:40.566Z,8.8462
2023-04-17T00:34:42.974Z,8.9385
2023-04-17T00:35:45.532Z,9.2846
2023-04-17T00:36:48.136Z,9.2077
2023-04-17T00:37:50.720Z,9.1077
2023-04-17T00:38:53.311Z,9.2154
2023-04-17T00:39:55.865Z,9.0923
2023-04-17T00:40:58.469Z,8.7000
2023-04-17T00:42:01.319Z,8.8308
2023-04-17T00:43:03.613Z,8.7385
2023-04-17T00:44:06.365Z,8.8077
2023-04-17T00:45:08.780Z,8.9308
2023-04-17T00:46:11.439Z,8.7769
2023-04-17T00:47:13.956Z,8.6538
2023-04-17T00:48:16.576Z,8.7308
2023-04-17T00:49:19.127Z,8.7615
2023-04-17T00:50:21.747Z,8.9769
2023-04-17T00:51:24.301Z,8.6308
2023-04-17T00:52:27.109Z,8.4385
2023-04-17T00:53:29.463Z,8.4462
2023-04-17T00:54:32.090Z,8.6615
2023-04-17T00:55:34.645Z,8.6154
2023-04-17T00:56:37.246Z,8.5769
2023-04-17T00:57:39.812Z,8.4846
2023-04-17T00:58:42.406Z,8.5462
2023-04-17T00:59:44.960Z,8.3538
2023-04-17T01:00:47.606Z,8.1231
2023-04-17T01:01:50.208Z,8.2692
2023-04-17T01:02:52.829Z,8.4462
2023-04-17T01:03:55.764Z,8.4538
2023-04-17T01:04:57.987Z,8.3615
2023-04-17T01:06:00.538Z,8.3538
2023-04-17T01:07:03.173Z,7.8923
2023-04-17T01:08:05.703Z,8.3462
2023-04-17T01:09:08.306Z,8.2769
2023-04-17T01:10:10.862Z,8.1077
2023-04-17T01:11:13.469Z,8.2769
2023-04-17T01:12:16.023Z,7.9923
2023-04-17T01:13:18.664Z,8.3231
2023-04-17T01:14:21.209Z,7.8462
2023-04-17T01:15:23.821Z,8.3462
2023-04-17T01:16:26.380Z,8.2000
2023-04-17T01:17:28.987Z,7.9077
2023-04-17T01:18:31.527Z,7.7692
2023-04-17T01:19:34.350Z,8.2692
2023-04-17T01:20:37.006Z,7.9154
2023-04-17T01:21:39.308Z,8.0385
2023-04-17T01:22:41.854Z,8.4462
2023-04-17T01:23:44.470Z,7.7846
2023-04-17T01:24:47.039Z,7.9538
2023-04-17T01:25:49.637Z,7.8000
2023-04-17T01:26:52.202Z,7.5231
2023-04-17T01:27:54.795Z,7.8000
2023-04-17T01:28:57.409Z,7.8692
2023-04-17T01:29:59.967Z,7.8154
2023-04-17T01:31:02.566Z,7.8231
2023-04-17T01:32:05.134Z,7.9615
2023-04-17T01:33:07.707Z,7.6769
2023-04-17T01:34:10.306Z,7.6462
2023-04-17T01:35:12.874Z,7.8615
2023-04-17T01:36:15.485Z,7.9385
2023-04-17T01:37:18.041Z,7.7385
2023-04-17T01:38:20.664Z,7.9231
2023-04-17T01:39:23.508Z,7.4769
2023-04-17T01:40:25.835Z,7.4154
2023-04-17T01:41:28.401Z,7.7077
2023-04-17T01:42:30.990Z,7.6077
2023-04-17T01:43:33.569Z,7.4769
2023-04-17T01:44:36.164Z,7.6769
2023-04-17T01:45:38.760Z,7.4308
2023-04-17T01:46:41.409Z,7.5538
2023-04-17T01:47:43.926Z,7.8000
2023-04-17T01:48:46.628Z,7.4615
2023-04-17T01:49:49.069Z,7.2385
2023-04-17T01:50:51.681Z,7.1846
2023-04-17T01:51:54.243Z,7.2462
2023-04-17T01:52:56.847Z,7.6538
2023-04-17T01:53:59.407Z,7.4923
2023-04-17T01:55:02.020Z,7.4923
2023-04-17T01:56:04.586Z,7.2308
2023-04-17T01:57:07.202Z,7.4769
2023-04-17T01:58:09.759Z,7.0769
2023-04-17T01:59:12.504Z,7.2154
2023-04-17T02:00:14.928Z,7.2154
2023-04-17T02:01:17.559Z,7.1538
2023-04-17T02:02:20.332Z,7.2231
2023-04-17T02:03:22.814Z,7.0769
2023-04-17T02:04:25.329Z,7.2077
2023-04-17T02:05:27.883Z,7.0846
2023-04-17T02:06:30.446Z,7.0231
2023-04-17T02:07:33.058Z,7.0538
2023-04-17T02:08:35.617Z,6.7615
2023-04-17T02:09:38.235Z,7.2538
2023-04-17T02:10:40.793Z,7.3615
2023-04-17T02:11:43.404Z,6.6923
2023-04-17T02:12:45.966Z,6.8462
2023-04-17T02:13:48.576Z,6.9538
2023-04-17T02:14:51.137Z,6.8077
2023-04-17T02:15:53.771Z,6.6615
2023-04-17T02:16:56.321Z,6.8846
2023-04-17T02:17:59.018Z,6.9000
2023-04-17T02:19:01.488Z,6.9231
2023-04-17T02:20:04.102Z,6.7692
2023-04-17T02:21:06.661Z,6.9385
2023-04-17T02:22:09.266Z,6.8000
2023-04-17T02:23:11.843Z,6.5923
2023-04-17T02:24:14.434Z,6.7231
2023-04-17T02:25:17.295Z,6.5846
2023-04-17T02:26:19.613Z,6.3538
2023-04-17T02:27:22.163Z,6.3000
2023-04-17T02:28:24.783Z,6.7385
2023-04-17T02:29:27.355Z,6.6308
2023-04-17T02:30:29.942Z,6.2462
2023-04-17T02:31:32.546Z,6.3923
2023-04-17T02:32:35.139Z,6.4000
2023-04-17T02:33:37.685Z,6.4923
2023-04-17T02:34:40.273Z,6.6692
2023-04-17T02:35:42.829Z,6.5538
2023-04-17T02:36:45.453Z,6.7231
2023-04-17T02:37:48.017Z,6.8462
2023-04-17T02:38:50.612Z,6.3385
2023-04-17T02:39:53.183Z,6.6154
2023-04-17T02:40:55.778Z,6.4231
2023-04-17T02:41:58.332Z,6.1923
2023-04-17T02:43:00.952Z,6.4615
2023-04-17T02:44:03.513Z,6.6769
2023-04-17T02:45:06.121Z,6.0615
2023-04-17T02:46:08.825Z,6.4462
2023-04-17T02:47:11.289Z,6.3538
2023-04-17T02:48:13.855Z,6.1077
2023-04-17T02:49:16.449Z,6.4462
2023-04-17T02:50:19.017Z,6.4154
2023-04-17T02:51:21.623Z,6.1769
2023-04-17T02:52:24.237Z,5.9923
2023-04-17T02:53:26.783Z,6.3769
2023-04-17T02:54:29.340Z,6.0615
2023-04-17T02:55:31.946Z,6.2308
2023-04-17T02:56:34.517Z,6.1692
2023-04-17T02:57:37.113Z,6.1538
2023-04-17T02:58:39.711Z,6.0077
2023-04-17T02:59:42.292Z,5.8692
2023-04-17T03:00:44.853Z,6.0923
2023-04-17T03:01:47.504Z,6.2769
2023-04-17T03:02:50.155Z,5.8462
2023-04-17T03:03:52.911Z,5.9000
2023-04-17T03:04:55.170Z,5.7308
2023-04-17T03:05:57.780Z,6.0462
2023-04-17T03:07:00.337Z,5.9308
2023-04-17T03:08:02.943Z,5.9538
2023-04-17T03:09:05.518Z,5.8231
2023-04-17T03:10:08.118Z,5.9615
2023-04-17T03:11:10.670Z,5.9077
2023-04-17T03:12:13.285Z,5.9077
2023-04-17T03:13:15.840Z,5.9154
2023-04-17T03:14:18.484Z,5.9385
2023-04-17T03:15:21.032Z,5.8308
2023-04-17T03:16:23.910Z,5.9538
2023-04-17T03:17:26.201Z,6.0615
2023-04-17T03:18:28.795Z,5.8692
2023-04-17T03:19:31.338Z,5.9538
2023-04-17T03:20:33.956Z,5.9538
2023-04-17T03:21:36.505Z,5.8077
2023-04-17T03:22:39.109Z,5.8692
2023-04-17T03:23:41.673Z,5.7385
2023-04-17T03:24:44.525Z,5.7769
2023-04-17T03:25:46.849Z,5.8462
2023-04-17T03:26:49.480Z,5.6923
2023-04-17T03:27:52.014Z,5.4692
2023-04-17T03:28:54.618Z,5.6231
2023-04-17T03:29:57.199Z,5.6769
2023-04-17T03:30:59.788Z,5.5923
2023-04-17T03:32:02.455Z,5.7923
2023-04-17T03:33:05.009Z,5.4000
2023-04-17T03:34:07.514Z,5.8000
2023-04-17T03:35:10.120Z,5.6846
2023-04-17T03:36:12.685Z,5.5462
2023-04-17T03:37:15.296Z,5.6462
2023-04-17T03:38:17.861Z,5.7000
2023-04-17T03:39:20.854Z,5.2462
2023-04-17T03:40:23.030Z,5.4231
2023-04-17T03:41:25.637Z,5.6231
2023-04-17T03:42:28.203Z,5.6538
2023-04-17T03:43:30.804Z,5.6385
2023-04-17T03:44:33.358Z,5.5923
2023-04-17T03:45:36.233Z,5.8000
2023-04-17T03:46:38.527Z,5.3846
2023-04-17T03:47:41.167Z,5.3769
2023-04-17T03:48:43.703Z,5.1154
2023-04-17T03:49:46.310Z,5.2462
2023-04-17T03:50:48.898Z,5.5154
2023-04-17T03:51:51.477Z,5.4000
2023-04-17T03:52:54.035Z,5.3923
2023-04-17T03:53:56.642Z,5.3308
2023-04-17T03:54:59.201Z,5.2846
2023-04-17T03:56:01.814Z,5.4231
2023-04-17T03:57:04.382Z,5.2538
2023-04-17T03:58:06.992Z,5.3000
2023-04-17T03:59:09.785Z,5.0385
2023-04-17T04:00:12.161Z,5.2231
2023-04-17T04:01:14.793Z,5.2615
2023-04-17T04:02:17.435Z,5.2462
2023-04-17T04:03:20.042Z,5.2154
2023-04-17T04:04:22.827Z,5.3769
2023-04-17T04:05:25.402Z,5.3308
2023-04-17T04:06:27.664Z,5.1769
2023-04-17T04:07:30.269Z,5.3615
2023-04-17T04:08:32.835Z,4.9923
2023-04-17T04:09:35.396Z,5.1231
2023-04-17T04:10:37.999Z,5.1154
2023-04-17T04:11:40.554Z,4.8692
2023-04-17T04:12:43.165Z,4.7769
2023-04-17T04:13:45.722Z,5.1692
2023-04-17T04:14:48.326Z,5.3538
2023-04-17T04:15:50.900Z,5.1077
2023-04-17T04:16:53.496Z,5.0769
2023-04-17T04:17:56.109Z,4.9308
2023-04-17T04:18:58.676Z,4.9846
2023-04-17T04:20:01.269Z,5.1154
2023-04-17T04:21:03.838Z,4.9154
2023-04-17T04:22:06.959Z,4.7000
2023-04-17T04:23:08.989Z,4.9154
2023-04-17T04:24:11.552Z,5.0154
2023-04-17T04:25:14.169Z,4.8538
2023-04-17T04:26:16.713Z,4.8615
2023-04-17T04:27:19.322Z,4.6462
2023-04-17T04:28:21.883Z,4.7154
2023-04-17T04:29:24.493Z,4.9154
2023-04-17T04:30:27.060Z,5.0462
2023-04-17T04:31:29.843Z,5.0615
2023-04-17T04:32:32.298Z,4.8308
2023-04-17T04:33:35.898Z,4.6462
2023-04-17T04:34:37.380Z,4.9308
2023-04-17T04:35:40.007Z,5.0000
2023-04-17T04:36:42.553Z,5.0615
2023-04-17T04:37:45.164Z,5.0308
2023-04-17T04:38:47.726Z,4.8538
2023-04-17T04:39:50.325Z,4.8615
2023-04-17T04:40:52.944Z,4.8000
2023-04-17T04:41:55.502Z,4.7000
2023-04-17T04:42:58.073Z,4.7923
2023-04-17T04:44:00.669Z,4.8692
2023-04-17T04:45:03.239Z,4.4692
2023-04-17T04:46:05.831Z,4.7077
2023-04-17T04:47:08.546Z,4.6154
2023-04-17T04:48:10.995Z,4.8077
2023-04-17T04:49:13.621Z,4.8154
2023-04-17T04:50:17.388Z,4.8308
2023-04-17T04:51:18.755Z,4.6462
2023-04-17T04:52:21.340Z,4.6077
2023-04-17T04:53:24.123Z,4.7308
2023-04-17T04:54:26.514Z,4.8077
2023-04-17T04:55:29.062Z,4.7077
2023-04-17T04:56:33.040Z,4.7385
2023-04-17T04:57:34.229Z,4.4538
2023-04-17T04:58:36.841Z,4.6538
2023-04-17T04:59:39.402Z,4.5231
2023-04-17T05:00:42.052Z,4.5077
2023-04-17T05:01:44.866Z,4.4846
2023-04-17T05:02:47.278Z,4.7000
2023-04-17T05:03:49.874Z,4.3462
2023-04-17T05:04:52.367Z,4.5846
2023-04-17T05:05:54.903Z,4.4846
2023-04-17T05:06:57.612Z,4.3615
2023-04-17T05:08:00.070Z,4.2231
2023-04-17T05:09:02.650Z,4.5615
2023-04-17T05:10:05.285Z,4.3769
2023-04-17T05:11:07.819Z,4.3462
2023-04-17T05:12:10.508Z,4.5154
2023-04-17T05:13:13.084Z,4.5615
2023-04-17T05:14:15.731Z,4.4692
2023-04-17T05:15:18.247Z,4.3692
2023-04-17T05:16:20.882Z,4.2154
2023-04-17T05:17:23.432Z,4.6154
2023-04-17T05:18:26.015Z,4.5692
2023-04-17T05:19:28.564Z,4.4615
2023-04-17T05:20:31.184Z,4.5000
2023-04-17T05:21:33.735Z,4.5846
2023-04-17T05:22:36.339Z,4.4308
2023-04-17T05:23:38.891Z,4.3538
2023-04-17T05:24:41.507Z,4.4615
2023-04-17T05:25:44.064Z,4.4154
2023-04-17T05:26:46.668Z,4.4308
2023-04-17T05:27:49.281Z,4.3769
2023-04-17T05:28:51.828Z,4.4385
2023-04-17T05:29:54.385Z,4.4692
2023-04-17T05:30:56.989Z,4.6077
2023-04-17T05:31:59.604Z,4.3154
2023-04-17T05:33:02.222Z,4.3000
2023-04-17T05:34:04.868Z,4.3462
2023-04-17T05:35:07.344Z,4.3077
2023-04-17T05:36:09.893Z,4.5846
2023-04-17T05:37:12.484Z,4.4692
2023-04-17T05:38:15.045Z,4.2692
2023-04-17T05:39:17.665Z,4.1000
2023-04-17T05:40:20.210Z,4.0462
2023-04-17T05:41:22.822Z,4.0154
2023-04-17T05:42:25.379Z,4.1308
2023-04-17T05:43:28.005Z,4.1385
2023-04-17T05:44:30.548Z,3.9154
2023-04-17T05:45:33.329Z,3.9077
2023-04-17T05:46:35.717Z,4.0769
2023-04-17T05:47:38.515Z,4.0615
2023-04-17T05:48:40.876Z,4.1077
2023-04-17T05:49:43.496Z,4.0154
2023-04-17T05:50:46.058Z,3.9154
2023-04-17T05:51:48.672Z,4.1923
2023-04-17T05:52:51.236Z,4.0462
2023-04-17T05:53:53.851Z,4.0000
2023-04-17T05:54:56.389Z,3.8077
2023-04-17T05:55:58.995Z,4.0231
2023-04-17T05:57:01.555Z,3.9923
2023-04-17T05:58:16.862Z,4.0154
2023-04-17T05:59:07.753Z,3.9385
2023-04-17T06:00:09.336Z,3.6769
2023-04-17T06:01:11.914Z,3.7615
2023-04-17T06:02:14.587Z,3.7385
2023-04-17T06:03:18.162Z,3.7000
2023-04-17T06:04:19.987Z,3.7077
2023-04-17T06:05:22.327Z,3.9692
2023-04-17T06:06:24.846Z,4.0462
2023-04-17T06:07:27.401Z,3.9538
2023-04-17T06:08:30.016Z,3.7385
2023-04-17T06:09:32.581Z,3.8769
2023-04-17T06:10:35.198Z,3.8538
2023-04-17T06:11:37.748Z,3.8385
2023-04-17T06:12:40.361Z,3.7154
2023-04-17T06:13:42.966Z,3.9385
2023-04-17T06:14:45.525Z,4.1000
2023-04-17T06:15:48.077Z,4.1769
2023-04-17T06:16:50.850Z,3.9154
2023-04-17T06:17:53.319Z,3.9000
2023-04-17T06:18:55.860Z,4.2154
2023-04-17T06:19:58.414Z,4.0846
2023-04-17T06:21:01.051Z,3.8615
2023-04-17T06:22:03.584Z,3.9538
2023-04-17T06:23:06.196Z,4.0308
2023-04-17T06:24:08.764Z,3.8154
2023-04-17T06:25:11.915Z,3.7077
2023-04-17T06:26:13.929Z,3.7769
2023-04-17T06:27:16.533Z,4.0154
2023-04-17T06:28:19.099Z,3.7154
2023-04-17T06:29:21.734Z,3.4615
2023-04-17T06:30:24.256Z,3.6308
2023-04-17T06:31:26.888Z,3.7231
2023-04-17T06:32:29.484Z,3.8154
2023-04-17T06:33:32.062Z,3.7846
2023-04-17T06:34:34.604Z,3.4692
2023-04-17T06:35:37.206Z,3.7231
2023-04-17T06:36:39.792Z,3.6538
2023-04-17T06:37:42.576Z,3.7308
2023-04-17T06:38:44.933Z,3.8615
2023-04-17T06:39:47.535Z,3.5462
2023-04-17T06:40:52.131Z,3.5154
2023-04-17T06:41:52.703Z,3.7077
2023-04-17T06:42:55.308Z,3.4615
2023-04-17T06:43:57.865Z,3.6000
2023-04-17T06:45:00.434Z,3.9154
2023-04-17T06:46:03.054Z,3.8846
2023-04-17T06:47:05.593Z,3.9846
2023-04-17T06:48:08.201Z,3.7077
2023-04-17T06:49:11.038Z,3.6462
2023-04-17T06:50:13.387Z,4.0308
2023-04-17T06:51:15.917Z,3.9538
2023-04-17T06:52:18.525Z,3.6846
2023-04-17T06:53:21.086Z,3.6308
2023-04-17T06:54:23.700Z,3.7846
2023-04-17T06:55:26.277Z,3.8769
2023-04-17T06:56:28.893Z,3.8077
2023-04-17T06:57:31.412Z,3.8000
2023-04-17T06:58:34.030Z,4.0154
2023-04-17T06:59:36.575Z,3.7923
2023-04-17T07:00:39.200Z,3.8615
2023-04-17T07:01:41.826Z,3.9538
2023-04-17T07:02:44.433Z,3.8385
2023-04-17T07:03:47.082Z,3.7000
2023-04-17T07:04:49.784Z,3.9077
2023-04-17T07:05:52.084Z,3.7846
2023-04-17T07:06:54.684Z,3.7462
2023-04-17T07:07:57.237Z,3.7769
2023-04-17T07:09:00.120Z,3.8462
2023-04-17T07:10:02.413Z,3.9692
2023-04-17T07:11:05.048Z,3.8231
2023-04-17T07:12:07.589Z,3.7846
2023-04-17T07:13:10.192Z,3.8462
2023-04-17T07:14:12.973Z,3.5769
2023-04-17T07:15:15.523Z,3.4538
2023-04-17T07:16:17.981Z,3.6923
2023-04-17T07:17:20.613Z,3.5923
2023-04-17T07:18:23.095Z,3.8308
2023-04-17T07:19:25.703Z,3.6538
2023-04-17T07:20:28.283Z,3.5000
2023-04-17T07:21:30.872Z,3.6385
2023-04-17T07:22:33.434Z,3.6000
2023-04-17T07:23:36.035Z,3.6385
2023-04-17T07:24:38.603Z,3.6154
2023-04-17T07:25:41.235Z,3.7077
2023-04-17T07:26:44.040Z,3.6077
2023-04-17T07:27:46.382Z,3.5923
2023-04-17T07:28:48.942Z,3.7385
2023-04-17T07:29:51.564Z,3.7846
2023-04-17T07:30:54.107Z,3.8154
2023-04-17T07:31:56.928Z,3.5538
2023-04-17T07:32:59.534Z,3.7154
2023-04-17T07:34:01.925Z,3.6846
2023-04-17T07:35:04.494Z,3.8154
2023-04-17T07:36:07.072Z,3.8462
2023-04-17T07:37:09.632Z,3.9000
2023-04-17T07:38:12.254Z,3.8692
2023-04-17T07:39:14.855Z,3.7692
2023-04-17T07:40:17.410Z,3.9462
2023-04-17T07:41:19.971Z,3.9308
2023-04-17T07:42:22.661Z,3.9769
2023-04-17T07:43:25.206Z,3.9308
2023-04-17T07:44:27.766Z,4.0308
2023-04-17T07:45:30.334Z,3.8154
2023-04-17T07:46:33.005Z,3.9231
2023-04-17T07:47:35.557Z,3.9231
2023-04-17T07:48:38.117Z,4.0000
2023-04-17T07:49:40.675Z,3.7000
2023-04-17T07:50:43.276Z,3.9077
2023-04-17T07:51:45.830Z,3.8923
2023-04-17T07:52:48.453Z,3.8692
2023-04-17T07:53:51.031Z,3.6615
2023-04-17T07:54:53.628Z,3.6692
2023-04-17T07:55:56.228Z,3.8308
2023-04-17T07:56:58.856Z,3.6154
2023-04-17T07:58:01.345Z,3.7308
2023-04-17T07:59:03.958Z,3.8385
2023-04-17T08:00:06.511Z,3.7846
2023-04-17T08:01:09.126Z,3.5692
2023-04-17T08:02:11.800Z,3.5769
2023-04-17T08:03:14.504Z,3.6154
2023-04-17T08:04:17.338Z,3.7231
2023-04-17T08:05:19.531Z,3.5077
2023-04-17T08:06:22.023Z,3.3769
2023-04-17T08:07:24.668Z,3.8846
2023-04-17T08:08:27.202Z,3.6692
2023-04-17T08:09:29.815Z,3.3846
2023-04-17T08:10:32.372Z,3.5923
2023-04-17T08:11:40.095Z,3.6231
2023-04-17T08:12:38.823Z,3.5615
2023-04-17T08:13:40.150Z,3.5500
2023-04-17T08:14:42.709Z,3.4000
2023-04-17T08:15:45.329Z,3.5769
2023-04-17T08:16:47.952Z,3.5231
2023-04-17T08:17:50.526Z,3.6692
2023-04-17T08:18:53.055Z,3.4077
2023-04-17T08:19:55.692Z,3.4846
2023-04-17T08:20:58.217Z,3.5385
2023-04-17T08:22:00.837Z,3.6538
2023-04-17T08:23:03.402Z,3.5846
2023-04-17T08:24:06.003Z,3.4231
2023-04-17T08:25:08.557Z,3.6000
2023-04-17T08:26:11.167Z,3.6231
2023-04-17T08:27:13.730Z,3.5615
2023-04-17T08:28:16.379Z,3.4308
2023-04-17T08:29:18.951Z,3.4154
2023-04-17T08:30:21.496Z,3.3385
2023-04-17T08:31:24.177Z,3.4308
2023-04-17T08:32:26.674Z,3.3615
2023-04-17T08:33:29.224Z,3.3846
2023-04-17T08:34:31.987Z,3.4308
2023-04-17T08:35:34.389Z,3.3308
2023-04-17T08:36:37.001Z,3.3846
2023-04-17T08:37:39.569Z,3.4385
2023-04-17T08:38:42.208Z,3.2923
2023-04-17T08:39:44.730Z,3.2154
2023-04-17T08:40:47.357Z,3.2923
2023-04-17T08:41:49.893Z,3.5000
2023-04-17T08:42:52.505Z,3.3846
2023-04-17T08:43:55.078Z,3.1923
2023-04-17T08:44:57.666Z,3.2462
2023-04-17T08:46:00.604Z,3.2923
2023-04-17T08:47:02.840Z,3.2462
2023-04-17T08:48:05.424Z,3.3615
2023-04-17T08:49:08.015Z,3.1615
2023-04-17T08:50:10.595Z,3.0923
2023-04-17T08:51:13.178Z,3.3231
2023-04-17T08:52:15.746Z,3.3923
2023-04-17T08:53:18.341Z,3.2769
2023-04-17T08:54:20.897Z,3.1077
2023-04-17T08:55:23.522Z,3.0385
2023-04-17T08:56:26.076Z,3.3000
2023-04-17T08:57:28.675Z,3.1462
2023-04-17T08:58:31.236Z,2.9846
2023-04-17T08:59:33.867Z,3.1769
2023-04-17T09:00:36.435Z,3.2077
2023-04-17T09:01:39.089Z,3.0692
2023-04-17T09:02:41.716Z,3.0231
2023-04-17T09:03:44.338Z,2.9692
2023-04-17T09:04:46.859Z,2.8846
2023-04-17T09:05:49.359Z,2.8769
2023-04-17T09:06:52.025Z,3.0308
2023-04-17T09:07:54.528Z,2.9231
2023-04-17T09:08:57.086Z,3.1769
2023-04-17T09:09:59.708Z,3.0846
2023-04-17T09:11:02.276Z,3.0846
2023-04-17T09:12:04.890Z,3.0385
2023-04-17T09:13:07.474Z,2.9538
2023-04-17T09:14:10.037Z,3.0308
2023-04-17T09:15:12.603Z,2.7846
2023-04-17T09:16:15.281Z,2.8154
2023-04-17T09:17:17.770Z,2.8692
2023-04-17T09:18:20.451Z,2.8385
2023-04-17T09:19:23.133Z,2.7231
2023-04-17T09:20:25.772Z,2.8692
2023-04-17T09:21:28.174Z,2.8308
2023-04-17T09:22:30.792Z,2.7538
2023-04-17T09:23:33.352Z,3.0231
2023-04-17T09:24:36.316Z,3.1769
2023-04-17T09:25:38.514Z,2.9923
2023-04-17T09:26:41.135Z,2.8846
2023-04-17T09:27:43.682Z,2.9538
2023-04-17T09:28:46.303Z,2.7923
2023-04-17T09:29:48.854Z,2.8769
2023-04-17T09:30:51.466Z,2.8462
2023-04-17T09:31:54.095Z,3.0000
2023-04-17T09:32:56.785Z,2.8846
2023-04-17T09:33:59.216Z,2.8462
2023-04-17T09:35:01.825Z,2.9692
2023-04-17T09:36:04.401Z,2.9846
2023-04-17T09:37:07.969Z,2.9692
2023-04-17T09:38:09.559Z,2.9308
2023-04-17T09:39:12.242Z,2.8846
2023-04-17T09:40:14.723Z,2.9923
2023-04-17T09:41:17.407Z,2.9923
2023-04-17T09:42:19.914Z,2.7846
2023-04-17T09:43:22.442Z,2.8769
2023-04-17T09:44:25.057Z,2.8538
2023-04-17T09:45:48.604Z,2.6154
2023-04-17T09:46:30.250Z,3.0250
2023-04-17T09:47:32.838Z,2.7308
2023-04-17T09:48:35.368Z,2.8923
2023-04-17T09:49:38.198Z,2.8923
2023-04-17T09:50:40.527Z,2.6615
2023-04-17T09:51:43.155Z,2.8154
2023-04-17T09:52:45.713Z,2.7462
2023-04-17T09:53:48.363Z,2.8385
2023-04-17T09:54:50.849Z,2.9077
2023-04-17T09:55:53.467Z,2.9308
2023-04-17T09:56:56.213Z,2.8923
2023-04-17T09:57:58.625Z,2.9077
2023-04-17T09:59:01.193Z,2.8000
2023-04-17T10:00:03.786Z,2.7846
2023-04-17T10:01:06.401Z,2.5846
2023-04-17T10:02:09.092Z,2.5846
2023-04-17T10:03:11.760Z,2.9077
2023-04-17T10:04:14.440Z,2.8077
2023-04-17T10:05:16.672Z,2.5846
2023-04-17T10:06:19.306Z,2.8077
2023-04-17T10:07:21.842Z,2.7846
2023-04-17T10:08:24.451Z,2.6923
2023-04-17T10:09:27.043Z,2.7538
2023-04-17T10:10:29.670Z,2.8154
2023-04-17T10:11:32.196Z,2.7615
2023-04-17T10:12:35.113Z,2.6538
2023-04-17T10:13:37.337Z,2.7462
2023-04-17T10:14:39.953Z,2.5385
2023-04-17T10:15:42.500Z,2.8077
2023-04-17T10:16:45.327Z,10.4308
2023-04-17T10:17:47.677Z,23.3692
2023-04-17T10:18:50.293Z,24.3923
2023-04-17T10:19:52.852Z,17.7615
2023-04-17T10:20:55.534Z,11.1538
2023-04-17T10:21:58.006Z,9.9538
2023-04-17T10:23:00.617Z,8.4385
2023-04-17T10:24:03.174Z,8.1000
2023-04-17T10:25:05.768Z,8.0923
2023-04-17T10:26:08.335Z,7.9846
2023-04-17T10:27:10.958Z,8.2692
2023-04-17T10:28:13.507Z,8.2077
2023-04-17T10:29:16.109Z,7.2231
2023-04-17T10:31:21.311Z,7.2385
2023-04-17T10:32:23.818Z,7.3615
2023-04-17T10:33:26.470Z,8.0154
2023-04-17T10:34:29.045Z,7.9846
2023-04-17T10:35:31.603Z,8.4077
2023-04-17T10:36:34.156Z,8.2615
2023-04-17T10:37:36.764Z,8.3846
2023-04-17T10:38:39.319Z,7.8692
2023-04-17T10:39:41.928Z,7.7538
2023-04-17T10:40:44.548Z,7.8692
2023-04-17T10:41:47.106Z,7.5769
2023-04-17T10:42:49.661Z,7.2462
2023-04-17T10:43:52.290Z,7.4154
2023-04-17T10:44:54.845Z,7.1154
2023-04-17T10:45:57.531Z,7.2538
2023-04-17T10:46:59.993Z,7.0538
2023-04-17T10:48:02.697Z,7.1385
2023-04-17T10:49:05.185Z,7.2154
2023-04-17T10:50:07.790Z,7.0077
2023-04-17T10:51:10.355Z,7.1077
2023-04-17T10:52:12.944Z,7.0385
2023-04-17T10:53:15.504Z,6.8154
2023-04-17T10:54:18.114Z,6.8923
2023-04-17T10:55:20.686Z,6.8846
2023-04-17T10:56:23.285Z,6.5769
2023-04-17T10:57:26.176Z,6.5308
2023-04-17T10:58:31.616Z,6.5538
2023-04-17T10:59:31.010Z,6.7385
2023-04-17T11:00:33.628Z,6.7692
2023-04-17T11:01:36.197Z,7.0077
2023-04-17T11:02:38.841Z,6.6846
2023-04-17T11:03:41.375Z,18.1308
2023-04-17T11:04:43.979Z,15.0769
2023-04-17T11:05:46.524Z,11.7923
2023-04-17T11:06:49.136Z,10.2231
2023-04-17T11:07:51.676Z,8.3154
2023-04-17T11:08:55.615Z,8.4692
2023-04-17T11:09:56.824Z,9.4846
2023-04-17T11:10:59.461Z,8.9308
2023-04-17T11:12:02.383Z,8.9308
2023-04-17T11:13:04.606Z,8.4846
2023-04-17T11:14:07.152Z,8.3308
2023-04-17T11:15:09.818Z,8.1769
2023-04-17T11:16:12.318Z,8.1462
2023-04-17T11:17:14.954Z,8.3385
